sensor_id;sensor_type;location;lat;lon;timestamp;temperature;humidity
9977;DHT22;5029;47.378;11.776;2023-04-07T00:01:19;2.30;99.90
9977;DHT22;5029;47.378;11.776;2023-04-07T00:06:23;2.10;99.90
9977;DHT22;5029;47.378;11.776;2023-04-07T00:11:26;2.00;99.90
9977;DHT22;5029;47.378;11.776;2023-04-07T00:16:31;2.00;99.90
9977;DHT22;5029;47.378;11.776;2023-04-07T00:21:34;2.10;99.90
9977;DHT22;5029;47.378;11.776;2023-04-07T00:26:37;1.90;99.90
9977;DHT22;5029;47.378;11.776;2023-04-07T00:31:42;2.20;99.90
9977;DHT22;5029;47.378;11.776;2023-04-07T00:36:46;2.00;99.90
9977;DHT22;5029;47.378;11.776;2023-04-07T00:41:53;1.90;99.90
9977;DHT22;5029;47.378;11.776;2023-04-07T00:46:59;1.80;99.90
9977;DHT22;5029;47.378;11.776;2023-04-07T00:52:03;1.50;99.90
9977;DHT22;5029;47.378;11.776;2023-04-07T00:57:07;1.80;99.90
9977;DHT22;5029;47.378;11.776;2023-04-07T01:02:17;1.90;99.90
9977;DHT22;5029;47.378;11.776;2023-04-07T01:07:23;1.90;99.90
9977;DHT22;5029;47.378;11.776;2023-04-07T01:12:35;2.10;99.90
9977;DHT22;5029;47.378;11.776;2023-04-07T01:17:44;2.00;99.90
9977;DHT22;5029;47.378;11.776;2023-04-07T01:22:53;2.20;99.90
9977;DHT22;5029;47.378;11.776;2023-04-07T01:28:19;2.10;99.90
9977;DHT22;5029;47.378;11.776;2023-04-07T01:33:32;1.80;99.90
9977;DHT22;5029;47.378;11.776;2023-04-07T01:38:38;1.60;99.90
9977;DHT22;5029;47.378;11.776;2023-04-07T01:43:42;1.60;99.90
9977;DHT22;5029;47.378;11.776;2023-04-07T01:48:49;1.80;99.90
9977;DHT22;5029;47.378;11.776;2023-04-07T01:53:53;2.10;99.90
9977;DHT22;5029;47.378;11.776;2023-04-07T01:58:57;2.10;99.90
9977;DHT22;5029;47.378;11.776;2023-04-07T02:04:06;2.10;99.90
9977;DHT22;5029;47.378;11.776;2023-04-07T02:09:14;2.20;99.90
9977;DHT22;5029;47.378;11.776;2023-04-07T02:14:19;2.20;99.90
9977;DHT22;5029;47.378;11.776;2023-04-07T02:19:26;2.10;99.90
9977;DHT22;5029;47.378;11.776;2023-04-07T02:24:31;2.10;99.90
9977;DHT22;5029;47.378;11.776;2023-04-07T02:29:37;1.80;99.90
9977;DHT22;5029;47.378;11.776;2023-04-07T02:34:41;1.70;99.90
9977;DHT22;5029;47.378;11.776;2023-04-07T02:39:45;1.70;99.90
9977;DHT22;5029;47.378;11.776;2023-04-07T02:44:48;1.40;99.90
9977;DHT22;5029;47.378;11.776;2023-04-07T02:49:53;1.30;99.90
9977;DHT22;5029;47.378;11.776;2023-04-07T02:54:56;1.50;99.90
9977;DHT22;5029;47.378;11.776;2023-04-07T03:00:00;1.70;99.90
9977;DHT22;5029;47.378;11.776;2023-04-07T03:05:05;1.70;99.90
9977;DHT22;5029;47.378;11.776;2023-04-07T03:10:09;1.70;99.90
9977;DHT22;5029;47.378;11.776;2023-04-07T03:15:13;1.50;99.90
9977;DHT22;5029;47.378;11.776;2023-04-07T03:20:21;1.50;99.90
9977;DHT22;5029;47.378;11.776;2023-04-07T03:25:24;1.20;99.90
9977;DHT22;5029;47.378;11.776;2023-04-07T03:30:28;1.60;99.90
9977;DHT22;5029;47.378;11.776;2023-04-07T03:35:33;1.80;99.90
9977;DHT22;5029;47.378;11.776;2023-04-07T03:40:36;1.30;99.90
9977;DHT22;5029;47.378;11.776;2023-04-07T03:45:40;1.50;99.90
9977;DHT22;5029;47.378;11.776;2023-04-07T03:50:45;1.30;1.00
9977;DHT22;5029;47.378;11.776;2023-04-07T03:55:48;1.40;1.00
9977;DHT22;5029;47.378;11.776;2023-04-07T04:00:53;1.10;58.60
9977;DHT22;5029;47.378;11.776;2023-04-07T04:05:57;1.30;1.00
9977;DHT22;5029;47.378;11.776;2023-04-07T04:11:01;1.30;1.00
9977;DHT22;5029;47.378;11.776;2023-04-07T04:16:05;1.60;1.00
9977;DHT22;5029;47.378;11.776;2023-04-07T04:21:10;1.60;1.00
9977;DHT22;5029;47.378;11.776;2023-04-07T04:26:13;1.30;1.00
9977;DHT22;5029;47.378;11.776;2023-04-07T04:31:16;1.40;1.00
9977;DHT22;5029;47.378;11.776;2023-04-07T04:36:21;1.50;1.00
9977;DHT22;5029;47.378;11.776;2023-04-07T04:41:25;1.50;1.00
9977;DHT22;5029;47.378;11.776;2023-04-07T04:46:28;1.40;1.00
9977;DHT22;5029;47.378;11.776;2023-04-07T04:51:34;1.70;1.00
9977;DHT22;5029;47.378;11.776;2023-04-07T04:56:37;1.60;1.00
9977;DHT22;5029;47.378;11.776;2023-04-07T05:01:40;1.60;1.00
9977;DHT22;5029;47.378;11.776;2023-04-07T05:06:45;1.60;1.00
9977;DHT22;5029;47.378;11.776;2023-04-07T05:11:48;1.30;1.00
9977;DHT22;5029;47.378;11.776;2023-04-07T05:16:52;1.50;1.00
9977;DHT22;5029;47.378;11.776;2023-04-07T05:21:57;1.50;1.00
9977;DHT22;5029;47.378;11.776;2023-04-07T05:27:00;1.80;1.00
9977;DHT22;5029;47.378;11.776;2023-04-07T05:32:04;1.60;1.00
9977;DHT22;5029;47.378;11.776;2023-04-07T05:37:09;1.70;1.00
9977;DHT22;5029;47.378;11.776;2023-04-07T05:42:12;1.70;1.00
9977;DHT22;5029;47.378;11.776;2023-04-07T05:47:15;1.50;1.00
9977;DHT22;5029;47.378;11.776;2023-04-07T05:52:20;1.70;1.00
9977;DHT22;5029;47.378;11.776;2023-04-07T05:57:24;1.60;1.00
9977;DHT22;5029;47.378;11.776;2023-04-07T06:02:28;1.40;1.00
9977;DHT22;5029;47.378;11.776;2023-04-07T06:07:33;1.40;8.40
9977;DHT22;5029;47.378;11.776;2023-04-07T06:12:37;1.70;1.00
9977;DHT22;5029;47.378;11.776;2023-04-07T06:17:40;1.70;1.00
9977;DHT22;5029;47.378;11.776;2023-04-07T06:22:46;1.50;1.00
9977;DHT22;5029;47.378;11.776;2023-04-07T06:27:49;1.50;1.00
9977;DHT22;5029;47.378;11.776;2023-04-07T06:32:52;1.40;99.90
9977;DHT22;5029;47.378;11.776;2023-04-07T06:37:57;1.60;1.00
9977;DHT22;5029;47.378;11.776;2023-04-07T06:43:00;1.30;1.00
9977;DHT22;5029;47.378;11.776;2023-04-07T06:48:05;1.20;99.90
9977;DHT22;5029;47.378;11.776;2023-04-07T06:53:10;1.60;1.00
9977;DHT22;5029;47.378;11.776;2023-04-07T06:58:13;2.00;14.90
9977;DHT22;5029;47.378;11.776;2023-04-07T07:03:17;2.00;26.00
9977;DHT22;5029;47.378;11.776;2023-04-07T07:08:22;2.10;1.00
9977;DHT22;5029;47.378;11.776;2023-04-07T07:13:25;2.20;1.00
9977;DHT22;5029;47.378;11.776;2023-04-07T07:18:29;2.40;1.00
9977;DHT22;5029;47.378;11.776;2023-04-07T07:23:34;2.40;1.00
9977;DHT22;5029;47.378;11.776;2023-04-07T07:28:37;2.50;1.00
9977;DHT22;5029;47.378;11.776;2023-04-07T07:33:41;2.80;1.00
9977;DHT22;5029;47.378;11.776;2023-04-07T07:38:48;2.60;1.00
9977;DHT22;5029;47.378;11.776;2023-04-07T07:43:51;2.80;99.90
9977;DHT22;5029;47.378;11.776;2023-04-07T07:48:54;3.00;1.00
9977;DHT22;5029;47.378;11.776;2023-04-07T07:53:59;3.30;1.00
9977;DHT22;5029;47.378;11.776;2023-04-07T07:59:03;3.70;99.90
9977;DHT22;5029;47.378;11.776;2023-04-07T08:04:07;4.20;99.90
9977;DHT22;5029;47.378;11.776;2023-04-07T08:09:12;4.50;99.90
9977;DHT22;5029;47.378;11.776;2023-04-07T08:14:15;4.40;99.90
9977;DHT22;5029;47.378;11.776;2023-04-07T08:19:19;4.40;99.90
9977;DHT22;5029;47.378;11.776;2023-04-07T08:24:23;5.10;99.90
9977;DHT22;5029;47.378;11.776;2023-04-07T08:29:26;5.20;99.90
9977;DHT22;5029;47.378;11.776;2023-04-07T08:34:32;5.50;99.90
9977;DHT22;5029;47.378;11.776;2023-04-07T08:39:36;5.40;99.90
9977;DHT22;5029;47.378;11.776;2023-04-07T08:44:39;5.70;99.90
9977;DHT22;5029;47.378;11.776;2023-04-07T08:49:44;5.60;99.90
9977;DHT22;5029;47.378;11.776;2023-04-07T08:54:48;5.80;99.90
9977;DHT22;5029;47.378;11.776;2023-04-07T08:59:54;5.80;99.90
9977;DHT22;5029;47.378;11.776;2023-04-07T09:04:58;6.10;99.90
9977;DHT22;5029;47.378;11.776;2023-04-07T09:10:04;6.10;99.90
9977;DHT22;5029;47.378;11.776;2023-04-07T09:15:08;6.10;99.90
9977;DHT22;5029;47.378;11.776;2023-04-07T09:20:11;6.50;99.90
9977;DHT22;5029;47.378;11.776;2023-04-07T09:25:18;6.60;99.90
9977;DHT22;5029;47.378;11.776;2023-04-07T09:30:23;7.10;99.90
9977;DHT22;5029;47.378;11.776;2023-04-07T09:35:27;7.40;99.90
9977;DHT22;5029;47.378;11.776;2023-04-07T09:40:32;6.90;99.90
9977;DHT22;5029;47.378;11.776;2023-04-07T09:45:36;7.00;99.90
9977;DHT22;5029;47.378;11.776;2023-04-07T09:50:40;7.10;99.90
9977;DHT22;5029;47.378;11.776;2023-04-07T09:55:48;7.00;99.90
9977;DHT22;5029;47.378;11.776;2023-04-07T10:00:52;7.00;99.90
9977;DHT22;5029;47.378;11.776;2023-04-07T10:05:55;7.30;99.90
9977;DHT22;5029;47.378;11.776;2023-04-07T10:11:01;7.50;99.90
9977;DHT22;5029;47.378;11.776;2023-04-07T10:16:06;7.80;99.90
9977;DHT22;5029;47.378;11.776;2023-04-07T10:21:10;7.60;99.90
9977;DHT22;5029;47.378;11.776;2023-04-07T10:26:19;7.80;99.90
9977;DHT22;5029;47.378;11.776;2023-04-07T10:31:24;8.10;99.90
9977;DHT22;5029;47.378;11.776;2023-04-07T10:36:28;8.40;99.90
9977;DHT22;5029;47.378;11.776;2023-04-07T10:41:33;8.80;99.90
9977;DHT22;5029;47.378;11.776;2023-04-07T10:47:02;9.00;99.90
9977;DHT22;5029;47.378;11.776;2023-04-07T10:52:22;8.80;99.90
9977;DHT22;5029;47.378;11.776;2023-04-07T10:57:27;8.40;99.90
9977;DHT22;5029;47.378;11.776;2023-04-07T11:02:32;9.00;99.90
9977;DHT22;5029;47.378;11.776;2023-04-07T11:07:47;9.40;99.90
9977;DHT22;5029;47.378;11.776;2023-04-07T11:13:01;9.60;99.90
9977;DHT22;5029;47.378;11.776;2023-04-07T11:18:13;9.80;99.90
9977;DHT22;5029;47.378;11.776;2023-04-07T11:23:19;9.90;99.90
9977;DHT22;5029;47.378;11.776;2023-04-07T11:28:25;10.30;99.90
9977;DHT22;5029;47.378;11.776;2023-04-07T11:33:30;10.00;99.90
9977;DHT22;5029;47.378;11.776;2023-04-07T11:38:37;10.00;99.90
9977;DHT22;5029;47.378;11.776;2023-04-07T11:43:42;9.40;99.90
9977;DHT22;5029;47.378;11.776;2023-04-07T11:48:45;9.30;99.90
9977;DHT22;5029;47.378;11.776;2023-04-07T11:53:54;9.40;99.90
9977;DHT22;5029;47.378;11.776;2023-04-07T11:58:59;9.30;99.90
9977;DHT22;5029;47.378;11.776;2023-04-07T12:04:03;9.40;99.90
9977;DHT22;5029;47.378;11.776;2023-04-07T12:09:24;9.30;99.90
9977;DHT22;5029;47.378;11.776;2023-04-07T12:14:30;9.40;99.90
9977;DHT22;5029;47.378;11.776;2023-04-07T12:19:33;9.10;99.90
9977;DHT22;5029;47.378;11.776;2023-04-07T12:24:40;8.90;99.90
9977;DHT22;5029;47.378;11.776;2023-04-07T12:29:45;8.80;99.90
9977;DHT22;5029;47.378;11.776;2023-04-07T12:34:49;8.80;99.90
9977;DHT22;5029;47.378;11.776;2023-04-07T12:39:53;8.80;99.90
9977;DHT22;5029;47.378;11.776;2023-04-07T12:44:58;8.90;99.90
9977;DHT22;5029;47.378;11.776;2023-04-07T12:50:02;8.90;99.90
9977;DHT22;5029;47.378;11.776;2023-04-07T12:55:06;8.70;99.90
9977;DHT22;5029;47.378;11.776;2023-04-07T13:00:12;8.70;99.90
9977;DHT22;5029;47.378;11.776;2023-04-07T13:05:15;8.80;99.90
9977;DHT22;5029;47.378;11.776;2023-04-07T13:10:19;8.70;99.90
9977;DHT22;5029;47.378;11.776;2023-04-07T13:15:25;8.70;99.90
9977;DHT22;5029;47.378;11.776;2023-04-07T13:20:29;8.70;99.90
9977;DHT22;5029;47.378;11.776;2023-04-07T13:25:33;8.70;99.90
9977;DHT22;5029;47.378;11.776;2023-04-07T13:30:38;8.80;99.90
9977;DHT22;5029;47.378;11.776;2023-04-07T13:35:42;8.80;99.90
9977;DHT22;5029;47.378;11.776;2023-04-07T13:40:46;8.80;99.90
9977;DHT22;5029;47.378;11.776;2023-04-07T13:45:52;8.80;99.90
9977;DHT22;5029;47.378;11.776;2023-04-07T13:50:57;9.10;99.90
9977;DHT22;5029;47.378;11.776;2023-04-07T13:56:01;9.20;99.90
9977;DHT22;5029;47.378;11.776;2023-04-07T14:01:08;9.30;99.90
9977;DHT22;5029;47.378;11.776;2023-04-07T14:06:12;9.50;99.90
9977;DHT22;5029;47.378;11.776;2023-04-07T14:11:16;9.70;99.90
9977;DHT22;5029;47.378;11.776;2023-04-07T14:16:21;10.10;99.90
9977;DHT22;5029;47.378;11.776;2023-04-07T14:21:25;10.30;99.90
9977;DHT22;5029;47.378;11.776;2023-04-07T14:26:29;10.90;99.90
9977;DHT22;5029;47.378;11.776;2023-04-07T14:31:34;10.40;99.90
9977;DHT22;5029;47.378;11.776;2023-04-07T14:36:37;9.90;99.90
9977;DHT22;5029;47.378;11.776;2023-04-07T14:41:41;9.70;99.90
9977;DHT22;5029;47.378;11.776;2023-04-07T14:46:45;9.70;99.90
9977;DHT22;5029;47.378;11.776;2023-04-07T14:51:49;9.50;99.90
9977;DHT22;5029;47.378;11.776;2023-04-07T14:56:52;9.30;99.90
9977;DHT22;5029;47.378;11.776;2023-04-07T15:01:57;9.20;99.90
9977;DHT22;5029;47.378;11.776;2023-04-07T15:07:01;9.20;99.90
9977;DHT22;5029;47.378;11.776;2023-04-07T15:12:04;9.20;99.90
9977;DHT22;5029;47.378;11.776;2023-04-07T15:17:09;9.10;99.90
9977;DHT22;5029;47.378;11.776;2023-04-07T15:22:12;9.10;99.90
9977;DHT22;5029;47.378;11.776;2023-04-07T15:27:16;9.10;99.90
9977;DHT22;5029;47.378;11.776;2023-04-07T15:32:21;9.00;99.90
9977;DHT22;5029;47.378;11.776;2023-04-07T15:37:24;8.90;99.90
9977;DHT22;5029;47.378;11.776;2023-04-07T15:42:28;9.00;99.90
9977;DHT22;5029;47.378;11.776;2023-04-07T15:47:34;9.10;99.90
9977;DHT22;5029;47.378;11.776;2023-04-07T15:52:37;9.10;99.90
9977;DHT22;5029;47.378;11.776;2023-04-07T15:57:40;8.90;99.90
9977;DHT22;5029;47.378;11.776;2023-04-07T16:02:45;8.70;99.90
9977;DHT22;5029;47.378;11.776;2023-04-07T16:07:48;8.70;99.90
9977;DHT22;5029;47.378;11.776;2023-04-07T16:12:52;8.70;99.90
9977;DHT22;5029;47.378;11.776;2023-04-07T16:17:56;8.60;99.90
9977;DHT22;5029;47.378;11.776;2023-04-07T16:23:00;8.60;99.90
9977;DHT22;5029;47.378;11.776;2023-04-07T16:28:03;8.30;99.90
9977;DHT22;5029;47.378;11.776;2023-04-07T16:33:08;8.20;99.90
9977;DHT22;5029;47.378;11.776;2023-04-07T16:38:11;8.00;99.90
9977;DHT22;5029;47.378;11.776;2023-04-07T16:43:15;7.90;99.90
9977;DHT22;5029;47.378;11.776;2023-04-07T16:48:20;7.70;99.90
9977;DHT22;5029;47.378;11.776;2023-04-07T16:53:23;7.60;99.90
9977;DHT22;5029;47.378;11.776;2023-04-07T16:58:26;7.60;99.90
9977;DHT22;5029;47.378;11.776;2023-04-07T17:03:31;7.40;99.90
9977;DHT22;5029;47.378;11.776;2023-04-07T17:08:36;7.30;99.90
9977;DHT22;5029;47.378;11.776;2023-04-07T17:13:40;7.10;99.90
9977;DHT22;5029;47.378;11.776;2023-04-07T17:18:45;6.90;99.90
9977;DHT22;5029;47.378;11.776;2023-04-07T17:23:49;6.80;99.90
9977;DHT22;5029;47.378;11.776;2023-04-07T17:28:52;6.70;99.90
9977;DHT22;5029;47.378;11.776;2023-04-07T17:33:57;6.50;99.90
9977;DHT22;5029;47.378;11.776;2023-04-07T17:39:00;6.50;99.90
9977;DHT22;5029;47.378;11.776;2023-04-07T17:44:04;6.40;99.90
9977;DHT22;5029;47.378;11.776;2023-04-07T17:49:09;6.50;99.90
9977;DHT22;5029;47.378;11.776;2023-04-07T17:54:12;6.50;99.90
9977;DHT22;5029;47.378;11.776;2023-04-07T17:59:15;6.40;99.90
9977;DHT22;5029;47.378;11.776;2023-04-07T18:04:20;6.30;99.90
9977;DHT22;5029;47.378;11.776;2023-04-07T18:09:24;6.30;99.90
9977;DHT22;5029;47.378;11.776;2023-04-07T18:14:27;6.30;99.90
9977;DHT22;5029;47.378;11.776;2023-04-07T18:19:32;6.30;99.90
9977;DHT22;5029;47.378;11.776;2023-04-07T18:24:36;6.30;99.90
9977;DHT22;5029;47.378;11.776;2023-04-07T18:29:39;6.30;99.90
9977;DHT22;5029;47.378;11.776;2023-04-07T18:34:46;6.20;99.90
9977;DHT22;5029;47.378;11.776;2023-04-07T18:39:51;6.10;1.00
9977;DHT22;5029;47.378;11.776;2023-04-07T18:44:55;6.00;1.00
9977;DHT22;5029;47.378;11.776;2023-04-07T18:50:00;6.00;1.00
9977;DHT22;5029;47.378;11.776;2023-04-07T18:55:05;5.90;1.00
9977;DHT22;5029;47.378;11.776;2023-04-07T19:00:10;6.00;99.90
9977;DHT22;5029;47.378;11.776;2023-04-07T19:05:15;5.80;99.90
9977;DHT22;5029;47.378;11.776;2023-04-07T19:10:23;5.70;1.00
9977;DHT22;5029;47.378;11.776;2023-04-07T19:15:26;5.40;99.90
9977;DHT22;5029;47.378;11.776;2023-04-07T19:20:31;5.30;1.00
9977;DHT22;5029;47.378;11.776;2023-04-07T19:25:35;5.10;99.90
9977;DHT22;5029;47.378;11.776;2023-04-07T19:30:39;5.00;99.90
9977;DHT22;5029;47.378;11.776;2023-04-07T19:35:44;5.10;99.90
9977;DHT22;5029;47.378;11.776;2023-04-07T19:40:47;5.00;1.00
9977;DHT22;5029;47.378;11.776;2023-04-07T19:45:51;4.90;99.90
9977;DHT22;5029;47.378;11.776;2023-04-07T19:50:56;4.70;1.00
9977;DHT22;5029;47.378;11.776;2023-04-07T19:56:00;5.10;99.90
9977;DHT22;5029;47.378;11.776;2023-04-07T20:01:05;5.10;99.90
9977;DHT22;5029;47.378;11.776;2023-04-07T20:06:17;4.80;99.90
9977;DHT22;5029;47.378;11.776;2023-04-07T20:11:25;4.80;1.00
9977;DHT22;5029;47.378;11.776;2023-04-07T20:16:30;4.70;99.90
9977;DHT22;5029;47.378;11.776;2023-04-07T20:21:35;4.60;1.00
9977;DHT22;5029;47.378;11.776;2023-04-07T20:26:38;4.60;99.90
9977;DHT22;5029;47.378;11.776;2023-04-07T20:31:42;4.60;99.90
9977;DHT22;5029;47.378;11.776;2023-04-07T20:36:46;4.40;1.00
9977;DHT22;5029;47.378;11.776;2023-04-07T20:41:50;4.50;99.90
9977;DHT22;5029;47.378;11.776;2023-04-07T20:46:53;4.60;99.90
9977;DHT22;5029;47.378;11.776;2023-04-07T20:51:58;4.40;1.00
9977;DHT22;5029;47.378;11.776;2023-04-07T20:57:01;4.40;99.90
9977;DHT22;5029;47.378;11.776;2023-04-07T21:02:05;4.60;99.90
9977;DHT22;5029;47.378;11.776;2023-04-07T21:07:10;4.50;99.90
9977;DHT22;5029;47.378;11.776;2023-04-07T21:12:13;4.70;99.90
9977;DHT22;5029;47.378;11.776;2023-04-07T21:17:16;4.70;99.90
9977;DHT22;5029;47.378;11.776;2023-04-07T21:22:22;4.70;99.90
9977;DHT22;5029;47.378;11.776;2023-04-07T21:27:28;4.60;99.90
9977;DHT22;5029;47.378;11.776;2023-04-07T21:32:31;4.30;1.00
9977;DHT22;5029;47.378;11.776;2023-04-07T21:37:36;4.00;1.00
9977;DHT22;5029;47.378;11.776;2023-04-07T21:42:39;4.00;99.90
9977;DHT22;5029;47.378;11.776;2023-04-07T21:47:43;4.10;99.90
9977;DHT22;5029;47.378;11.776;2023-04-07T21:52:49;4.10;99.90
9977;DHT22;5029;47.378;11.776;2023-04-07T21:57:53;3.80;12.80
9977;DHT22;5029;47.378;11.776;2023-04-07T22:02:56;3.80;99.90
9977;DHT22;5029;47.378;11.776;2023-04-07T22:08:01;3.70;99.90
9977;DHT22;5029;47.378;11.776;2023-04-07T22:13:05;3.70;99.90
9977;DHT22;5029;47.378;11.776;2023-04-07T22:18:08;3.70;99.90
9977;DHT22;5029;47.378;11.776;2023-04-07T22:23:15;3.80;99.90
9977;DHT22;5029;47.378;11.776;2023-04-07T22:28:18;4.00;99.90
9977;DHT22;5029;47.378;11.776;2023-04-07T22:33:22;3.80;99.90
9977;DHT22;5029;47.378;11.776;2023-04-07T22:38:29;3.70;99.90
9977;DHT22;5029;47.378;11.776;2023-04-07T22:43:32;3.80;99.90
9977;DHT22;5029;47.378;11.776;2023-04-07T22:48:36;3.60;99.90
9977;DHT22;5029;47.378;11.776;2023-04-07T22:53:40;3.60;99.90
9977;DHT22;5029;47.378;11.776;2023-04-07T22:58:44;3.70;99.90
9977;DHT22;5029;47.378;11.776;2023-04-07T23:03:47;3.70;99.90
9977;DHT22;5029;47.378;11.776;2023-04-07T23:08:52;3.60;99.90
9977;DHT22;5029;47.378;11.776;2023-04-07T23:13:55;3.80;99.90
9977;DHT22;5029;47.378;11.776;2023-04-07T23:18:58;3.70;99.90
9977;DHT22;5029;47.378;11.776;2023-04-07T23:24:03;3.60;99.90
9977;DHT22;5029;47.378;11.776;2023-04-07T23:29:06;3.60;99.90
9977;DHT22;5029;47.378;11.776;2023-04-07T23:34:10;3.60;99.90
9977;DHT22;5029;47.378;11.776;2023-04-07T23:39:14;3.80;99.90
9977;DHT22;5029;47.378;11.776;2023-04-07T23:44:17;3.60;99.90
9977;DHT22;5029;47.378;11.776;2023-04-07T23:49:21;3.50;99.90
9977;DHT22;5029;47.378;11.776;2023-04-07T23:54:26;3.50;99.90
9977;DHT22;5029;47.378;11.776;2023-04-07T23:59:29;3.60;99.90
